createdAt,value
2022-08-07T00:02:40.665Z,96849.44
2022-08-07T00:05:04.061Z,96845.75
2022-08-07T00:07:40.284Z,96855.69
2022-08-07T00:10:27.126Z,96856.50
2022-08-07T00:13:01.237Z,96851.81
2022-08-07T00:15:38.083Z,96850.78
2022-08-07T00:18:18.882Z,96855.78
2022-08-07T00:20:51.321Z,96854.31
2022-08-07T00:23:21.158Z,96849.00
2022-08-07T00:25:58.964Z,96843.63
2022-08-07T00:28:33.461Z,96844.88
2022-08-07T00:31:05.730Z,96837.41
2022-08-07T00:33:35.911Z,96832.47
2022-08-07T00:36:07.865Z,96834.72
2022-08-07T00:38:39.124Z,96831.47
2022-08-07T00:41:09.775Z,96836.47
2022-08-07T00:44:01.217Z,96836.72
2022-08-07T00:46:33.946Z,96843.31
2022-08-07T00:49:03.489Z,96837.81
2022-08-07T00:51:58.567Z,96839.91
2022-08-07T00:54:22.638Z,96838.41
2022-08-07T00:56:52.179Z,96841.09
2022-08-07T00:59:35.253Z,96839.44
2022-08-07T01:02:08.810Z,96839.50
2022-08-07T01:04:43.106Z,96836.59
2022-08-07T01:07:13.987Z,96837.41
2022-08-07T01:10:04.279Z,96832.84
2022-08-07T01:12:32.967Z,96828.09
2022-08-07T01:15:04.054Z,96824.38
2022-08-07T01:17:34.470Z,96831.38
2022-08-07T01:20:08.965Z,96821.22
2022-08-07T01:22:46.582Z,96828.47
2022-08-07T01:25:53.807Z,96826.28
2022-08-07T01:28:12.050Z,96823.41
2022-08-07T01:30:42.679Z,96820.94
2022-08-07T01:33:11.137Z,96823.41
2022-08-07T01:35:52.883Z,96812.66
2022-08-07T01:38:25.830Z,96806.25
2022-08-07T01:41:00.255Z,96814.75
2022-08-07T01:43:34.751Z,96814.16
2022-08-07T01:46:08.317Z,96810.03
2022-08-07T01:48:42.275Z,96803.84
2022-08-07T01:52:02.832Z,96803.25
2022-08-07T01:54:33.299Z,96803.00
2022-08-07T01:57:06.906Z,96806.34
2022-08-07T01:59:45.274Z,96801.19
2022-08-07T02:02:33.011Z,96804.75
2022-08-07T02:05:16.092Z,96806.63
2022-08-07T02:08:20.345Z,96801.25
2022-08-07T02:10:58.615Z,96802.06
2022-08-07T02:13:58.011Z,96802.88
2022-08-07T02:16:32.960Z,96802.88
2022-08-07T02:19:05.498Z,96806.63
2022-08-07T02:21:57.768Z,96804.16
2022-08-07T02:24:30.143Z,96800.06
2022-08-07T02:27:02.461Z,96794.44
2022-08-07T02:29:36.870Z,96800.66
2022-08-07T02:32:18.385Z,96795.88
2022-08-07T02:34:53.377Z,96792.59
2022-08-07T02:37:24.786Z,96793.84
2022-08-07T02:40:02.119Z,96792.41
2022-08-07T02:42:48.253Z,96787.03
2022-08-07T02:45:59.177Z,96786.84
2022-08-07T02:48:10.211Z,96787.44
2022-08-07T02:50:43.569Z,96774.22
2022-08-07T02:53:16.578Z,96763.25
2022-08-07T02:56:04.395Z,96760.38
2022-08-07T02:58:36.785Z,96765.94
2022-08-07T03:01:19.123Z,96776.09
2022-08-07T03:04:03.383Z,96775.28
2022-08-07T03:06:38.828Z,96779.81
2022-08-07T03:09:11.167Z,96775.88
2022-08-07T03:11:52.266Z,96776.91
2022-08-07T03:14:28.561Z,96768.03
2022-08-07T03:16:57.490Z,96769.91
2022-08-07T03:19:28.734Z,96761.84
2022-08-07T03:21:58.607Z,96767.44
2022-08-07T03:24:28.309Z,96768.66
2022-08-07T03:27:01.488Z,96767.84
2022-08-07T03:29:36.799Z,96766.44
2022-08-07T03:32:13.059Z,96764.97
2022-08-07T03:34:47.219Z,96766.09
2022-08-07T03:37:32.456Z,96769.81
2022-08-07T03:40:15.269Z,96775.78
2022-08-07T03:42:45.218Z,96770.41
2022-08-07T03:45:29.838Z,96765.03
2022-08-07T03:48:00.165Z,96767.72
2022-08-07T03:50:30.163Z,96774.16
2022-08-07T03:53:00.296Z,96768.78
2022-08-07T03:55:57.426Z,96773.91
2022-08-07T03:59:04.557Z,96769.41
2022-08-07T04:01:11.651Z,96767.53
2022-08-07T04:03:53.625Z,96762.41
2022-08-07T04:06:37.926Z,96762.41
2022-08-07T04:09:08.543Z,96762.56
2022-08-07T04:12:25.663Z,96760.47
2022-08-07T04:14:39.009Z,96763.16
2022-08-07T04:17:20.051Z,96764.63
2022-08-07T04:19:54.241Z,96753.03
2022-08-07T04:22:27.448Z,96762.34
2022-08-07T04:24:58.898Z,96757.81
2022-08-07T04:27:35.512Z,96767.50
2022-08-07T04:30:20.938Z,96761.34
2022-08-07T04:32:59.013Z,96767.31
2022-08-07T04:35:28.546Z,96780.72
2022-08-07T04:38:07.778Z,96772.88
2022-08-07T04:40:51.280Z,96771.22
2022-08-07T04:44:09.770Z,96765.03
2022-08-07T04:46:29.258Z,96779.13
2022-08-07T04:49:18.310Z,96772.91
2022-08-07T04:52:01.566Z,96771.69
2022-08-07T04:54:36.854Z,96772.09
2022-08-07T04:58:13.158Z,96776.66
2022-08-07T05:00:18.914Z,96768.81
2022-08-07T05:02:57.942Z,96768.00
2022-08-07T05:05:52.834Z,96770.47
2022-08-07T05:09:00.195Z,96773.16
2022-08-07T05:11:19.353Z,96773.97
2022-08-07T05:14:56.172Z,96760.75
2022-08-07T05:16:52.683Z,96764.50
2022-08-07T05:19:32.735Z,96771.66
2022-08-07T05:22:26.691Z,96771.50
2022-08-07T05:25:00.383Z,96771.06
2022-08-07T05:28:02.494Z,96771.06
2022-08-07T05:30:30.022Z,96771.66
2022-08-07T05:33:03.354Z,96770.47
2022-08-07T05:35:42.258Z,96774.56
2022-08-07T05:39:00.263Z,96775.59
2022-08-07T05:41:12.125Z,96763.03
2022-08-07T05:44:07.672Z,96768.38
2022-08-07T05:46:35.497Z,96767.94
2022-08-07T05:49:11.753Z,96761.34
2022-08-07T05:51:42.917Z,96768.94
2022-08-07T05:54:44.601Z,96769.75
2022-08-07T05:57:03.786Z,96768.13
2022-08-07T05:59:46.541Z,96767.91
2022-08-07T06:02:29.136Z,96762.94
2022-08-07T06:05:03.867Z,96767.25
2022-08-07T06:08:13.835Z,96760.84
2022-08-07T06:10:25.041Z,96757.72
2022-08-07T06:12:53.889Z,96769.28
2022-08-07T06:15:39.063Z,96770.13
2022-08-07T06:18:14.096Z,96770.13
2022-08-07T06:20:50.291Z,96767.44
2022-08-07T06:24:38.211Z,96773.00
2022-08-07T06:26:27.515Z,96761.84
2022-08-07T06:29:01.328Z,96762.00
2022-08-07T06:31:47.220Z,96765.06
2022-08-07T06:34:19.725Z,96764.84
2022-08-07T06:36:51.955Z,96767.34
2022-08-07T06:40:13.149Z,96764.41
2022-08-07T06:42:17.573Z,96763.38
2022-08-07T06:44:49.967Z,96767.47
2022-08-07T06:47:21.100Z,96765.19
2022-08-07T06:49:51.209Z,96770.34
2022-08-07T06:52:31.705Z,96765.78
2022-08-07T06:55:32.250Z,96769.94
2022-08-07T06:58:04.841Z,96773.69
2022-08-07T07:00:36.885Z,96772.63
2022-08-07T07:03:08.728Z,96770.13
2022-08-07T07:06:04.151Z,96766.78
2022-08-07T07:08:31.122Z,96775.81
2022-08-07T07:11:13.040Z,96778.28
2022-08-07T07:13:58.312Z,96781.41
2022-08-07T07:16:38.931Z,96776.63
2022-08-07T07:19:55.679Z,96772.91
2022-08-07T07:22:32.171Z,96769.78
2022-08-07T07:25:02.951Z,96769.13
2022-08-07T07:27:56.042Z,96762.56
2022-08-07T07:30:40.118Z,96763.16
2022-08-07T07:33:12.123Z,96761.72
2022-08-07T07:35:54.730Z,96764.66
2022-08-07T07:38:34.985Z,96762.78
2022-08-07T07:41:08.727Z,96760.22
2022-08-07T07:43:47.942Z,96761.81
2022-08-07T07:46:39.829Z,96764.66
2022-08-07T07:50:33.820Z,96764.84
2022-08-07T07:52:15.803Z,96763.97
2022-08-07T07:54:50.557Z,96758.50
2022-08-07T07:57:43.660Z,96758.91
2022-08-07T08:00:21.174Z,96754.72
2022-08-07T08:03:07.887Z,96750.59
2022-08-07T08:05:54.856Z,96758.91
2022-08-07T08:08:37.093Z,96759.06
2022-08-07T08:11:16.226Z,96759.22
2022-08-07T08:13:55.425Z,96756.88
2022-08-07T08:16:30.028Z,96760.63
2022-08-07T08:19:18.099Z,96764.13
2022-08-07T08:22:10.920Z,96764.22
2022-08-07T08:25:18.144Z,96774.59
2022-08-07T08:27:56.812Z,96772.19
2022-08-07T08:30:30.276Z,96774.72
2022-08-07T08:33:04.111Z,96777.41
2022-08-07T08:35:39.411Z,96784.22
2022-08-07T08:38:21.694Z,96782.50
2022-08-07T08:41:03.813Z,96777.94
2022-08-07T08:43:41.995Z,96784.28
2022-08-07T08:46:20.377Z,96779.88
2022-08-07T08:48:58.406Z,96791.41
2022-08-07T08:51:49.501Z,96772.16
2022-08-07T08:54:27.365Z,96778.25
2022-08-07T08:56:59.247Z,96780.88
2022-08-07T08:59:42.179Z,96787.00
2022-08-07T09:02:36.395Z,96779.88
2022-08-07T09:05:26.446Z,96778.97
2022-08-07T09:08:31.374Z,96782.03
2022-08-07T09:11:24.831Z,96783.72
2022-08-07T09:14:13.051Z,96776.44
2022-08-07T09:17:03.079Z,96777.84
2022-08-07T09:19:55.216Z,96769.13
2022-08-07T09:24:28.729Z,96771.97
2022-08-07T09:25:39.213Z,96772.09
2022-08-07T09:29:24.345Z,96768.50
2022-08-07T09:31:03.022Z,96772.63
2022-08-07T09:33:56.612Z,96769.94
2022-08-07T09:36:35.689Z,96761.38
2022-08-07T09:39:27.351Z,96764.00
2022-08-07T09:42:33.559Z,96766.13
2022-08-07T09:47:25.643Z,96762.75
2022-08-07T09:48:14.387Z,96767.44
2022-08-07T09:50:55.337Z,96763.00
2022-08-07T09:53:27.163Z,96759.41
2022-08-07T09:56:47.639Z,96758.22
2022-08-07T09:59:44.557Z,96766.22
2022-08-07T10:02:53.659Z,96763.97
2022-08-07T10:05:59.429Z,96759.13
2022-08-07T10:08:58.748Z,96755.25
2022-08-07T10:12:03.155Z,96755.72
2022-08-07T10:14:54.953Z,96744.91
2022-08-07T10:18:01.678Z,96746.22
2022-08-07T10:20:41.068Z,96743.28
2022-08-07T10:24:05.504Z,96745.75
2022-08-07T10:26:45.173Z,96732.34
2022-08-07T10:30:06.508Z,96737.88
2022-08-07T10:32:59.813Z,96735.38
2022-08-07T10:35:56.499Z,96726.34
2022-08-07T10:38:48.288Z,96722.50
2022-08-07T10:41:54.687Z,96722.34
2022-08-07T10:44:38.044Z,96720.13
2022-08-07T10:47:27.251Z,96717.72
2022-08-07T10:50:15.151Z,96712.09
2022-08-07T10:52:53.397Z,96713.00
2022-08-07T10:55:37.711Z,96712.38
2022-08-07T10:58:24.945Z,96712.84
2022-08-07T11:01:18.780Z,96714.06
2022-08-07T11:04:16.606Z,96708.00
2022-08-07T11:06:57.187Z,96711.63
2022-08-07T11:10:09.400Z,96702.34
2022-08-07T11:12:31.686Z,96702.44
2022-08-07T11:15:14.443Z,96687.94
2022-08-07T11:17:50.310Z,96691.69
2022-08-07T11:20:31.369Z,96678.06
2022-08-07T11:23:09.259Z,96685.22
2022-08-07T11:25:47.886Z,96681.28
2022-08-07T11:28:24.585Z,96680.59
2022-08-07T11:31:01.077Z,96678.06
2022-08-07T11:33:53.691Z,96676.25
2022-08-07T11:36:42.062Z,96676.25
2022-08-07T11:39:19.411Z,96671.31
2022-08-07T11:42:00.280Z,96668.38
2022-08-07T11:44:52.442Z,96666.38
2022-08-07T11:47:56.043Z,96661.59
2022-08-07T11:50:57.455Z,96671.59
2022-08-07T11:54:01.548Z,96668.00
2022-08-07T11:56:42.657Z,96668.25
2022-08-07T12:00:12.268Z,96666.38
2022-08-07T12:02:32.149Z,96664.06
2022-08-07T12:05:09.179Z,96666.94
2022-08-07T12:07:53.431Z,96655.97
2022-08-07T12:10:41.640Z,96666.66
2022-08-07T12:13:18.611Z,96664.22
2022-08-07T12:16:09.191Z,96654.16
2022-08-07T12:18:47.574Z,96651.44
2022-08-07T12:22:36.144Z,96649.75
2022-08-07T12:24:38.470Z,96651.31
2022-08-07T12:27:16.125Z,96646.97
2022-08-07T12:29:52.913Z,96646.97
2022-08-07T12:32:28.520Z,96645.88
2022-08-07T12:35:00.977Z,96645.88
2022-08-07T12:38:10.081Z,96649.44
2022-08-07T12:40:46.559Z,96641.56
2022-08-07T12:44:03.586Z,96641.31
2022-08-07T12:46:16.031Z,96642.06
2022-08-07T12:49:09.846Z,96642.03
2022-08-07T12:52:12.052Z,96638.69
2022-08-07T12:54:55.042Z,96631.34
2022-08-07T12:58:00.207Z,96629.13
2022-08-07T13:00:31.231Z,96635.34
2022-08-07T13:04:02.454Z,96633.47
2022-08-07T13:07:00.695Z,96634.22
2022-08-07T13:10:37.951Z,96629.81
2022-08-07T13:12:56.140Z,96621.06
2022-08-07T13:15:37.246Z,96626.41
2022-08-07T13:18:26.681Z,96626.66
2022-08-07T13:21:06.065Z,96623.97
2022-08-07T13:24:01.981Z,96616.09
2022-08-07T13:26:41.818Z,96616.53
2022-08-07T13:29:19.408Z,96620.81
2022-08-07T13:31:57.466Z,96615.09
2022-08-07T13:34:36.648Z,96617.00
2022-08-07T13:37:20.590Z,96609.13
2022-08-07T13:40:35.611Z,96611.53
2022-08-07T13:42:55.633Z,96614.72
2022-08-07T13:46:20.771Z,96607.66
2022-08-07T13:48:27.787Z,96604.97
2022-08-07T13:51:27.987Z,96604.97
2022-08-07T13:54:00.646Z,96606.94
2022-08-07T13:56:35.963Z,96598.31
2022-08-07T13:59:13.838Z,96595.44
2022-08-07T14:01:59.102Z,96594.22
2022-08-07T14:04:49.634Z,96599.97
2022-08-07T14:07:23.047Z,96590.34
2022-08-07T14:10:12.400Z,96595.31
2022-08-07T14:12:55.758Z,96591.03
2022-08-07T14:15:36.525Z,96594.00
2022-08-07T14:18:24.468Z,96588.59
2022-08-07T14:21:08.321Z,96588.06
2022-08-07T14:24:00.407Z,96591.34
2022-08-07T14:26:37.242Z,96590.53
2022-08-07T14:30:06.232Z,96595.94
2022-08-07T14:32:02.289Z,96588.38
2022-08-07T14:34:34.437Z,96588.13
2022-08-07T14:37:18.765Z,96584.09
2022-08-07T14:40:16.616Z,96593.91
2022-08-07T14:43:00.736Z,96584.81
2022-08-07T14:45:46.815Z,96587.38
2022-08-07T14:48:21.035Z,96581.00
2022-08-07T14:50:53.257Z,96577.00
2022-08-07T14:54:08.590Z,96579.72
2022-08-07T14:56:29.494Z,96569.66
2022-08-07T14:59:13.812Z,96564.44
2022-08-07T15:01:59.027Z,96568.50
2022-08-07T15:04:28.866Z,96570.88
2022-08-07T15:06:58.235Z,96560.31
2022-08-07T15:09:59.482Z,96560.31
2022-08-07T15:21:08.002Z,96553.22
2022-08-07T15:25:12.690Z,96553.53
2022-08-07T15:26:39.471Z,96550.78
2022-08-07T15:32:05.070Z,96548.44
2022-08-07T15:34:50.379Z,96545.88
2022-08-07T15:37:27.730Z,96551.72
2022-08-07T15:39:59.740Z,96557.03
2022-08-07T15:42:52.060Z,96555.84
2022-08-07T15:51:18.086Z,96552.13
2022-08-07T15:53:53.616Z,96550.97
2022-08-07T15:56:33.227Z,96550.72
2022-08-07T15:59:06.661Z,96548.53
2022-08-07T16:02:01.753Z,96546.88
2022-08-07T16:04:35.695Z,96553.09
2022-08-07T16:08:33.706Z,96553.94
2022-08-07T16:10:08.710Z,96553.94
2022-08-07T16:13:01.349Z,96553.09
2022-08-07T16:15:57.443Z,96551.97
2022-08-07T16:18:51.017Z,96550.59
2022-08-07T16:22:01.983Z,96546.22
2022-08-07T16:24:33.686Z,96550.34
2022-08-07T16:27:20.927Z,96542.00
2022-08-07T16:30:29.523Z,96549.28
2022-08-07T16:34:02.249Z,96552.50
2022-08-07T16:36:20.239Z,96554.34
2022-08-07T16:39:14.886Z,96550.34
2022-08-07T16:42:02.846Z,96557.66
2022-08-07T16:45:15.556Z,96558.22
2022-08-07T16:48:28.454Z,96548.38
2022-08-07T16:51:54.380Z,96554.53
2022-08-07T16:54:19.501Z,96557.25
2022-08-07T16:57:03.184Z,96550.47
2022-08-07T16:59:46.073Z,96557.72
2022-08-07T17:02:52.517Z,96559.88
2022-08-07T17:06:19.572Z,96557.94
2022-08-07T17:09:09.165Z,96553.78
2022-08-07T17:12:01.799Z,96566.41
2022-08-07T17:14:44.722Z,96562.56
2022-08-07T17:17:44.326Z,96560.38
2022-08-07T17:20:30.089Z,96554.91
2022-08-07T17:23:12.992Z,96567.84
2022-08-07T17:25:54.595Z,96561.59
2022-08-07T17:28:34.467Z,96560.22
2022-08-07T17:31:15.725Z,96564.25
2022-08-07T17:34:32.766Z,96567.44
2022-08-07T17:36:58.006Z,96562.00
2022-08-07T17:39:57.753Z,96562.81
2022-08-07T17:42:58.262Z,96564.38
2022-08-07T17:45:35.264Z,96558.63
2022-08-07T17:48:10.399Z,96567.47
2022-08-07T17:50:54.210Z,96581.47
2022-08-07T17:54:01.038Z,96577.09
2022-08-07T17:56:29.732Z,96569.84
2022-08-07T17:59:10.308Z,96570.31
2022-08-07T18:01:56.768Z,96570.00
2022-08-07T18:04:34.497Z,96568.63
2022-08-07T18:07:19.956Z,96572.63
2022-08-07T18:10:06.211Z,96566.56
2022-08-07T18:13:09.634Z,96570.31
2022-08-07T18:15:53.430Z,96578.09
2022-08-07T18:18:45.834Z,96575.66
2022-08-07T18:21:42.212Z,96581.31
2022-08-07T18:24:28.391Z,96584.72
2022-08-07T18:27:38.932Z,96588.16
2022-08-07T18:30:31.429Z,96588.34
2022-08-07T18:33:37.867Z,96593.63
2022-08-07T18:36:17.582Z,96602.72
2022-08-07T18:40:05.476Z,96605.31
2022-08-07T18:42:12.816Z,96606.06
2022-08-07T18:45:44.167Z,96615.44
2022-08-07T18:48:00.830Z,96620.75
2022-08-07T18:50:49.532Z,96623.09
2022-08-07T18:53:37.054Z,96624.13
2022-08-07T18:56:17.689Z,96633.53
2022-08-07T18:59:47.733Z,96643.75
2022-08-07T19:02:33.031Z,96642.38
2022-08-07T19:05:15.285Z,96649.63
2022-08-07T19:08:03.814Z,96652.81
2022-08-07T19:10:49.777Z,96650.13
2022-08-07T19:13:27.447Z,96656.56
2022-08-07T19:17:00.288Z,96667.34
2022-08-07T19:19:03.430Z,96665.97
2022-08-07T19:21:45.126Z,96664.34
2022-08-07T19:24:31.043Z,96665.59
2022-08-07T19:28:56.401Z,96667.16
2022-08-07T19:31:05.607Z,96669.03
2022-08-07T19:32:59.091Z,96672.78
2022-08-07T19:35:33.232Z,96674.09
2022-08-07T19:38:15.718Z,96668.69
2022-08-07T19:40:50.086Z,96674.09
2022-08-07T19:43:48.737Z,96675.13
2022-08-07T19:46:15.743Z,96679.25
2022-08-07T19:48:54.186Z,96674.66
2022-08-07T19:51:51.082Z,96670.81
2022-08-07T19:54:35.149Z,96674.53
2022-08-07T19:57:59.905Z,96669.41
2022-08-07T20:00:02.040Z,96676.56
2022-08-07T20:02:35.630Z,96670.03
2022-08-07T20:05:10.865Z,96668.00
2022-08-07T20:07:46.418Z,96668.50
2022-08-07T20:10:35.527Z,96668.63
2022-08-07T20:13:23.464Z,96663.09
2022-08-07T20:15:58.389Z,96661.94
2022-08-07T20:18:33.005Z,96667.47
2022-08-07T20:21:21.005Z,96663.00
2022-08-07T20:23:57.882Z,96653.72
2022-08-07T20:26:44.843Z,96658.78
2022-08-07T20:29:47.133Z,96670.59
2022-08-07T20:32:11.335Z,96668.38
2022-08-07T20:34:51.716Z,96657.47
2022-08-07T20:37:26.333Z,96659.59
2022-08-07T20:40:02.158Z,96666.94
2022-08-07T20:42:38.601Z,96670.00
2022-08-07T20:45:33.641Z,96656.53
2022-08-07T20:48:02.496Z,96656.50
2022-08-07T20:50:31.950Z,96656.00
2022-08-07T20:53:00.844Z,96659.41
2022-08-07T20:55:32.297Z,96659.84
2022-08-07T20:58:19.187Z,96660.78
2022-08-07T21:01:02.768Z,96664.22
2022-08-07T21:03:34.565Z,96667.94
2022-08-07T21:06:21.796Z,96665.25
2022-08-07T21:09:01.072Z,96656.19
2022-08-07T21:11:46.029Z,96664.78
2022-08-07T21:14:33.293Z,96664.78
2022-08-07T21:18:00.930Z,96672.78
2022-08-07T21:20:04.424Z,96668.97
2022-08-07T21:22:44.695Z,96668.28
2022-08-07T21:25:21.336Z,96667.78
2022-08-07T21:28:02.560Z,96665.53
2022-08-07T21:30:43.906Z,96673.75
2022-08-07T21:33:18.934Z,96668.78
2022-08-07T21:36:05.133Z,96670.72
2022-08-07T21:38:54.488Z,96672.91
2022-08-07T21:41:38.422Z,96678.66
2022-08-07T21:44:29.923Z,96679.09
2022-08-07T21:47:07.383Z,96676.69
2022-08-07T21:50:01.813Z,96698.31
2022-08-07T21:52:45.127Z,96692.63
2022-08-07T21:55:29.868Z,96690.84
2022-08-07T21:58:09.217Z,96681.91
2022-08-07T22:00:48.579Z,96683.06
2022-08-07T22:03:31.537Z,96695.91
2022-08-07T22:06:05.003Z,96694.41
2022-08-07T22:08:40.309Z,96699.94
2022-08-07T22:11:17.650Z,96694.84
2022-08-07T22:13:52.666Z,96683.97
2022-08-07T22:16:42.654Z,96690.34
2022-08-07T22:19:29.321Z,96691.03
2022-08-07T22:22:20.703Z,96686.97
2022-08-07T22:25:03.274Z,96686.19
2022-08-07T22:28:08.337Z,96694.28
2022-08-07T22:30:32.913Z,96698.19
2022-08-07T22:33:07.268Z,96690.53
2022-08-07T22:35:44.842Z,96696.16
2022-08-07T22:38:29.350Z,96691.28
2022-08-07T22:41:03.919Z,96703.31
2022-08-07T22:43:40.383Z,96695.09
2022-08-07T22:47:02.483Z,96694.09
2022-08-07T22:49:55.280Z,96701.06
2022-08-07T22:53:18.602Z,96704.75
2022-08-07T22:56:09.060Z,96702.91
2022-08-07T22:59:20.314Z,96707.31
2022-08-07T23:02:02.848Z,96701.22
2022-08-07T23:04:57.815Z,96699.44
2022-08-07T23:07:54.663Z,96698.19
2022-08-07T23:10:39.623Z,96704.00
2022-08-07T23:13:48.972Z,96700.25
2022-08-07T23:16:44.789Z,96704.38
2022-08-07T23:19:51.749Z,96698.84
2022-08-07T23:22:35.974Z,96695.09
2022-08-07T23:25:28.337Z,96689.47
2022-08-07T23:28:22.529Z,96696.06
2022-08-07T23:31:43.023Z,96686.38
2022-08-07T23:34:37.715Z,96688.63
2022-08-07T23:37:30.352Z,96688.66
2022-08-07T23:40:13.838Z,96687.91
2022-08-07T23:43:02.137Z,96685.66
2022-08-07T23:46:02.974Z,96678.25
2022-08-07T23:49:15.660Z,96675.13
2022-08-07T23:52:59.616Z,96679.69
2022-08-07T23:54:46.560Z,96685.44
2022-08-07T23:57:29.101Z,96680.75
